createdAt,value
2019-03-30T00:02:52.528Z,8.70
2019-03-30T00:06:53.422Z,9.30
2019-03-30T00:10:54.326Z,9.30
2019-03-30T00:14:55.246Z,10.00
2019-03-30T00:18:56.117Z,10.10
2019-03-30T00:22:57.066Z,10.30
2019-03-30T00:26:58.096Z,10.10
2019-03-30T00:30:58.986Z,9.60
2019-03-30T00:34:59.876Z,10.00
2019-03-30T00:39:00.730Z,9.90
2019-03-30T00:43:01.620Z,9.60
2019-03-30T00:47:02.527Z,9.40
2019-03-30T00:51:03.423Z,8.90
2019-03-30T00:55:05.353Z,9.20
2019-03-30T00:59:06.205Z,9.30
2019-03-30T01:03:07.138Z,9.30
2019-03-30T01:07:08.313Z,9.30
2019-03-30T01:11:09.328Z,9.10
2019-03-30T01:15:10.565Z,9.30
2019-03-30T01:19:11.448Z,9.20
2019-03-30T01:23:12.345Z,8.70
2019-03-30T01:27:13.334Z,9.20
2019-03-30T01:31:14.311Z,9.30
2019-03-30T01:35:15.245Z,9.00
2019-03-30T01:39:16.341Z,9.10
2019-03-30T01:43:17.300Z,8.20
2019-03-30T01:47:19.489Z,8.90
2019-03-30T01:51:20.540Z,8.70
2019-03-30T01:55:21.414Z,8.90
2019-03-30T01:59:22.285Z,8.70
2019-03-30T02:03:24.650Z,8.70
2019-03-30T02:07:25.815Z,8.70
2019-03-30T02:11:26.669Z,9.00
2019-03-30T02:15:27.553Z,9.10
2019-03-30T02:19:28.638Z,9.00
2019-03-30T02:23:29.599Z,9.10
2019-03-30T02:27:30.581Z,9.00
2019-03-30T02:31:31.555Z,8.90
2019-03-30T02:35:32.576Z,8.00
2019-03-30T02:39:33.434Z,8.50
2019-03-30T02:43:34.303Z,8.30
2019-03-30T02:47:35.445Z,8.20
2019-03-30T02:51:37.174Z,8.50
2019-03-30T02:55:38.144Z,8.70
2019-03-30T02:59:39.110Z,8.20
2019-03-30T03:03:40.005Z,8.60
2019-03-30T03:07:40.941Z,8.20
2019-03-30T03:11:41.807Z,8.30
2019-03-30T03:15:42.716Z,8.50
2019-03-30T03:19:43.560Z,8.40
2019-03-30T03:23:44.464Z,8.60
2019-03-30T03:27:45.446Z,8.60
2019-03-30T03:31:46.338Z,7.80
2019-03-30T03:35:47.306Z,8.00
2019-03-30T03:39:48.149Z,8.00
2019-03-30T03:43:49.134Z,8.20
2019-03-30T03:47:50.097Z,8.00
2019-03-30T03:51:51.354Z,8.10
2019-03-30T03:55:52.531Z,8.20
2019-03-30T03:59:56.521Z,8.30
2019-03-30T04:03:58.643Z,7.60
2019-03-30T04:08:01.630Z,8.00
2019-03-30T04:12:06.355Z,8.20
2019-03-30T04:16:07.321Z,8.10
2019-03-30T04:20:11.299Z,8.20
2019-03-30T04:24:12.189Z,8.30
2019-03-30T04:28:13.272Z,8.50
2019-03-30T04:32:14.151Z,8.50
2019-03-30T04:36:15.003Z,8.40
2019-03-30T04:40:15.875Z,8.60
2019-03-30T04:44:16.876Z,7.90
2019-03-30T04:48:17.840Z,8.30
2019-03-30T04:52:18.708Z,8.20
2019-03-30T04:56:19.592Z,8.40
2019-03-30T05:00:20.501Z,8.40
2019-03-30T05:04:21.514Z,8.70
2019-03-30T05:08:22.372Z,8.20
2019-03-30T05:12:23.264Z,8.70
2019-03-30T05:16:24.234Z,8.60
2019-03-30T05:20:25.263Z,8.60
2019-03-30T05:24:26.339Z,8.40
2019-03-30T05:28:27.262Z,8.30
2019-03-30T05:32:28.129Z,8.50
2019-03-30T05:36:29.163Z,8.30
2019-03-30T05:40:30.057Z,8.40
2019-03-30T05:44:30.928Z,8.60
2019-03-30T05:48:31.793Z,8.20
2019-03-30T05:52:35.475Z,8.40
2019-03-30T05:56:35.467Z,8.70
2019-03-30T06:00:36.360Z,9.30
2019-03-30T06:04:37.330Z,9.40
2019-03-30T06:08:38.239Z,9.70
2019-03-30T06:12:39.221Z,10.00
2019-03-30T06:16:40.238Z,10.20
2019-03-30T06:20:41.106Z,10.40
2019-03-30T06:24:42.063Z,10.80
2019-03-30T06:28:42.948Z,11.20
2019-03-30T06:32:44.492Z,11.50
2019-03-30T06:36:45.438Z,11.70
2019-03-30T06:40:46.327Z,12.30
2019-03-30T06:44:48.420Z,12.80
2019-03-30T06:48:49.406Z,13.30
2019-03-30T06:52:58.030Z,13.90
2019-03-30T06:56:56.548Z,14.40
2019-03-30T07:00:57.827Z,14.40
2019-03-30T07:04:58.788Z,14.70
2019-03-30T07:09:01.652Z,15.20
2019-03-30T07:13:02.738Z,15.90
2019-03-30T07:17:07.440Z,16.50
2019-03-30T07:21:08.494Z,16.60
2019-03-30T07:25:10.189Z,17.40
2019-03-30T07:29:11.082Z,18.00
2019-03-30T07:33:14.323Z,18.80
2019-03-30T07:37:15.328Z,19.40
2019-03-30T07:41:16.247Z,19.80
2019-03-30T07:45:17.356Z,19.60
2019-03-30T07:49:18.227Z,19.70
2019-03-30T07:53:26.148Z,20.40
2019-03-30T07:57:22.022Z,20.30
2019-03-30T08:01:22.901Z,20.20
2019-03-30T08:05:23.803Z,19.90
2019-03-30T08:09:24.778Z,20.00
2019-03-30T08:13:25.637Z,20.30
2019-03-30T08:17:26.568Z,20.50
2019-03-30T08:21:27.488Z,19.20
2019-03-30T08:25:28.399Z,20.20
2019-03-30T08:29:29.292Z,20.60
2019-03-30T08:33:30.174Z,20.90
2019-03-30T08:37:31.080Z,21.00
2019-03-30T08:41:31.983Z,20.10
2019-03-30T08:45:33.009Z,20.70
2019-03-30T08:49:34.029Z,20.30
2019-03-30T08:53:34.914Z,20.80
2019-03-30T08:57:35.938Z,20.30
2019-03-30T09:01:36.946Z,20.00
2019-03-30T09:05:38.223Z,20.20
2019-03-30T09:09:39.098Z,21.10
2019-03-30T09:13:40.086Z,20.10
2019-03-30T09:17:41.168Z,20.70
2019-03-30T09:21:42.070Z,20.40
2019-03-30T09:25:43.012Z,21.40
2019-03-30T09:29:45.533Z,21.40
2019-03-30T09:33:46.484Z,21.00
2019-03-30T09:37:47.446Z,21.20
2019-03-30T09:41:48.553Z,19.80
2019-03-30T09:45:49.397Z,19.00
2019-03-30T09:49:50.381Z,20.80
2019-03-30T09:53:52.372Z,19.80
2019-03-30T09:57:53.282Z,21.10
2019-03-30T10:01:54.192Z,19.80
2019-03-30T10:05:55.085Z,21.00
2019-03-30T10:09:55.961Z,21.40
2019-03-30T10:13:56.947Z,21.70
2019-03-30T10:17:58.441Z,21.70
2019-03-30T10:21:59.372Z,22.20
2019-03-30T10:26:00.273Z,22.30
2019-03-30T10:30:01.459Z,22.30
2019-03-30T10:34:02.346Z,22.60
2019-03-30T10:38:03.307Z,21.80
2019-03-30T10:42:04.266Z,21.50
2019-03-30T10:46:05.172Z,22.40
2019-03-30T10:50:06.450Z,22.30
2019-03-30T10:54:07.346Z,22.70
2019-03-30T10:58:08.216Z,22.30
2019-03-30T11:02:09.226Z,22.70
2019-03-30T11:06:10.227Z,22.20
2019-03-30T11:10:11.346Z,22.00
2019-03-30T11:14:12.255Z,22.70
2019-03-30T11:18:13.134Z,23.30
2019-03-30T11:22:14.035Z,23.00
2019-03-30T11:26:14.918Z,23.70
2019-03-30T11:30:15.898Z,22.70
2019-03-30T11:34:16.784Z,23.00
2019-03-30T11:38:17.674Z,23.00
2019-03-30T11:42:18.559Z,23.80
2019-03-30T11:46:19.474Z,22.90
2019-03-30T11:50:20.343Z,22.80
2019-03-30T11:54:21.214Z,22.40
2019-03-30T11:58:22.205Z,23.40
2019-03-30T12:02:28.257Z,23.60
2019-03-30T12:06:26.035Z,23.40
2019-03-30T12:10:27.021Z,23.80
2019-03-30T12:14:27.885Z,23.80
2019-03-30T12:18:28.804Z,23.80
2019-03-30T12:22:29.784Z,23.90
2019-03-30T12:26:30.703Z,23.50
2019-03-30T12:30:31.609Z,22.90
2019-03-30T12:34:32.626Z,24.00
2019-03-30T12:38:33.514Z,24.90
2019-03-30T12:42:34.515Z,24.50
2019-03-30T12:46:37.990Z,24.10
2019-03-30T12:50:38.974Z,23.20
2019-03-30T12:54:39.885Z,23.90
2019-03-30T12:58:40.874Z,23.50
2019-03-30T13:02:42.552Z,24.30
2019-03-30T13:06:45.179Z,25.50
2019-03-30T13:10:46.487Z,25.50
2019-03-30T13:14:51.568Z,27.10
2019-03-30T13:18:52.761Z,27.10
2019-03-30T13:22:53.635Z,27.20
2019-03-30T13:26:59.316Z,26.90
2019-03-30T13:31:00.930Z,26.60
2019-03-30T13:35:06.893Z,27.20
2019-03-30T13:39:09.541Z,27.70
2019-03-30T13:43:11.700Z,28.30
2019-03-30T13:47:12.628Z,27.30
2019-03-30T13:51:13.496Z,27.60
2019-03-30T13:55:14.714Z,27.70
2019-03-30T13:59:15.901Z,26.60
2019-03-30T14:03:16.784Z,27.00
2019-03-30T14:07:17.680Z,26.80
2019-03-30T14:11:18.660Z,25.70
2019-03-30T14:15:19.604Z,24.90
2019-03-30T14:19:23.426Z,24.60
2019-03-30T14:23:24.393Z,24.40
2019-03-30T14:27:25.406Z,24.10
2019-03-30T14:31:26.289Z,23.30
2019-03-30T14:35:27.441Z,23.90
2019-03-30T14:39:28.603Z,24.00
2019-03-30T14:43:29.710Z,23.80
2019-03-30T14:47:30.619Z,24.80
2019-03-30T14:51:31.570Z,24.30
2019-03-30T14:55:32.402Z,24.30
2019-03-30T14:59:33.325Z,24.30
2019-03-30T15:07:28.328Z,24.00
2019-03-30T15:11:29.298Z,23.20
2019-03-30T15:15:30.366Z,24.00
2019-03-30T15:19:31.382Z,24.50
2019-03-30T15:23:32.393Z,25.50
2019-03-30T15:27:33.286Z,25.30
2019-03-30T15:31:34.288Z,23.80
2019-03-30T15:35:35.273Z,22.90
2019-03-30T15:39:36.165Z,23.60
2019-03-30T15:43:38.389Z,23.40
2019-03-30T15:47:39.939Z,23.20
2019-03-30T15:51:41.020Z,22.40
2019-03-30T15:55:42.106Z,22.20
2019-03-30T15:59:43.104Z,21.70
2019-03-30T16:03:44.130Z,21.70
2019-03-30T16:07:44.989Z,22.80
2019-03-30T16:11:46.059Z,23.20
2019-03-30T16:15:47.061Z,23.10
2019-03-30T16:19:48.167Z,22.90
2019-03-30T16:23:49.149Z,23.30
2019-03-30T16:27:50.114Z,22.60
2019-03-30T16:31:51.204Z,22.70
2019-03-30T16:35:52.088Z,23.00
2019-03-30T16:39:53.132Z,23.20
2019-03-30T16:43:54.142Z,23.20
2019-03-30T16:47:55.031Z,23.40
2019-03-30T16:51:55.908Z,23.10
2019-03-30T16:55:56.839Z,23.50
2019-03-30T16:59:57.712Z,23.50
2019-03-30T17:03:58.691Z,24.00
2019-03-30T17:07:59.587Z,24.10
2019-03-30T17:12:00.527Z,23.90
2019-03-30T17:16:01.558Z,23.80
2019-03-30T17:20:05.246Z,24.00
2019-03-30T17:24:06.259Z,24.20
2019-03-30T17:28:07.260Z,23.70
2019-03-30T17:32:08.400Z,23.50
2019-03-30T17:36:09.370Z,23.40
2019-03-30T17:40:10.552Z,23.40
2019-03-30T17:44:11.467Z,23.50
2019-03-30T17:48:12.460Z,23.30
2019-03-30T17:52:13.356Z,23.00
2019-03-30T17:56:14.336Z,22.40
2019-03-30T18:00:19.481Z,21.90
2019-03-30T18:04:20.413Z,21.80
2019-03-30T18:08:21.442Z,22.20
2019-03-30T18:12:22.783Z,22.30
2019-03-30T18:16:23.768Z,22.10
2019-03-30T18:20:27.214Z,22.10
2019-03-30T18:24:28.169Z,21.70
2019-03-30T18:28:29.364Z,21.20
2019-03-30T18:32:30.427Z,21.30
2019-03-30T18:36:32.419Z,21.10
2019-03-30T18:40:33.608Z,21.00
2019-03-30T18:44:36.187Z,20.80
2019-03-30T18:48:37.062Z,20.80
2019-03-30T18:52:38.203Z,20.70
2019-03-30T18:56:39.364Z,20.30
2019-03-30T19:00:40.257Z,20.30
2019-03-30T19:04:41.532Z,19.90
2019-03-30T19:08:42.654Z,19.60
2019-03-30T19:12:43.562Z,19.20
2019-03-30T19:16:44.617Z,19.40
2019-03-30T19:20:47.899Z,19.10
2019-03-30T19:24:48.801Z,18.90
2019-03-30T19:28:56.684Z,19.10
2019-03-30T19:32:53.387Z,19.00
2019-03-30T19:36:54.372Z,18.70
2019-03-30T19:40:55.363Z,18.50
2019-03-30T19:44:56.230Z,18.20
2019-03-30T19:48:57.833Z,18.40
2019-03-30T19:52:58.733Z,18.40
2019-03-30T19:56:59.626Z,18.20
2019-03-30T20:01:00.942Z,17.90
2019-03-30T20:05:02.761Z,16.20
2019-03-30T20:09:06.586Z,16.70
2019-03-30T20:13:09.242Z,17.10
2019-03-30T20:17:10.880Z,17.30
2019-03-30T20:21:12.110Z,16.10
2019-03-30T20:25:13.045Z,17.40
2019-03-30T20:29:24.815Z,17.70
2019-03-30T20:33:16.826Z,17.10
2019-03-30T20:37:17.726Z,17.30
2019-03-30T20:41:18.746Z,17.30
2019-03-30T20:45:21.779Z,17.10
2019-03-30T20:49:22.892Z,17.00
2019-03-30T20:53:27.107Z,16.70
2019-03-30T20:57:28.430Z,16.50
2019-03-30T21:01:29.911Z,16.30
2019-03-30T21:05:30.827Z,16.40
2019-03-30T21:09:31.863Z,16.40
2019-03-30T21:13:32.831Z,16.20
2019-03-30T21:17:36.100Z,15.90
2019-03-30T21:21:37.139Z,16.00
2019-03-30T21:25:38.216Z,15.60
2019-03-30T21:29:53.955Z,16.00
2019-03-30T21:33:45.566Z,16.00
2019-03-30T21:37:47.106Z,15.90
2019-03-30T21:41:48.352Z,15.90
2019-03-30T21:45:49.232Z,15.80
2019-03-30T21:49:50.131Z,15.80
2019-03-30T21:53:51.126Z,15.80
2019-03-30T21:57:51.998Z,15.90
2019-03-30T22:01:52.988Z,15.80
2019-03-30T22:05:54.207Z,14.70
2019-03-30T22:09:55.303Z,15.30
2019-03-30T22:13:56.284Z,15.40
2019-03-30T22:17:57.166Z,15.20
2019-03-30T22:21:58.193Z,15.50
2019-03-30T22:25:59.073Z,15.30
2019-03-30T22:29:59.965Z,15.10
2019-03-30T22:34:01.037Z,14.70
2019-03-30T22:38:02.022Z,14.60
2019-03-30T22:42:07.039Z,14.70
2019-03-30T22:46:08.083Z,14.70
2019-03-30T22:50:09.443Z,14.40
2019-03-30T22:54:10.311Z,14.80
2019-03-30T22:58:12.409Z,15.00
2019-03-30T23:02:13.504Z,14.60
2019-03-30T23:06:14.500Z,14.30
2019-03-30T23:10:15.489Z,14.30
2019-03-30T23:14:16.904Z,14.20
2019-03-30T23:18:20.578Z,14.40
2019-03-30T23:22:21.629Z,14.40
2019-03-30T23:26:23.336Z,14.20
2019-03-30T23:30:24.263Z,14.20
2019-03-30T23:34:25.142Z,14.50
2019-03-30T23:38:26.130Z,14.40
2019-03-30T23:42:27.171Z,14.10
2019-03-30T23:46:28.158Z,14.00
2019-03-30T23:50:29.119Z,14.00
2019-03-30T23:54:30.056Z,13.80
2019-03-30T23:58:30.930Z,13.80
